sensor_id;sensor_type;location;lat;lon;timestamp;temperature;humidity
78704;SHT31;68034;51.966;5.676;2024-01-15T00:00:13;4.7;76.3
78704;SHT31;68034;51.966;5.676;2024-01-15T00:02:43;4.7;76.2
78704;SHT31;68034;51.966;5.676;2024-01-15T00:05:11;4.7;76.1
78704;SHT31;68034;51.966;5.676;2024-01-15T00:07:40;4.7;75.8
78704;SHT31;68034;51.966;5.676;2024-01-15T00:10:11;4.6;75.8
78704;SHT31;68034;51.966;5.676;2024-01-15T00:12:40;4.6;75.9
78704;SHT31;68034;51.966;5.676;2024-01-15T00:15:09;4.6;76.1
78704;SHT31;68034;51.966;5.676;2024-01-15T00:17:38;4.6;76.0
78704;SHT31;68034;51.966;5.676;2024-01-15T00:20:10;4.6;75.8
78704;SHT31;68034;51.966;5.676;2024-01-15T00:22:39;4.6;75.7
78704;SHT31;68034;51.966;5.676;2024-01-15T00:25:08;4.5;75.7
78704;SHT31;68034;51.966;5.676;2024-01-15T00:27:39;4.5;75.7
78704;SHT31;68034;51.966;5.676;2024-01-15T00:30:08;4.5;75.6
78704;SHT31;68034;51.966;5.676;2024-01-15T00:32:37;4.5;75.7
78704;SHT31;68034;51.966;5.676;2024-01-15T00:35:06;4.5;75.5
78704;SHT31;68034;51.966;5.676;2024-01-15T00:37:35;4.5;75.5
78704;SHT31;68034;51.966;5.676;2024-01-15T00:40:04;4.5;75.5
78704;SHT31;68034;51.966;5.676;2024-01-15T00:42:34;4.4;75.5
78704;SHT31;68034;51.966;5.676;2024-01-15T00:45:03;4.4;75.7
78704;SHT31;68034;51.966;5.676;2024-01-15T00:47:34;4.4;75.9
78704;SHT31;68034;51.966;5.676;2024-01-15T00:50:03;4.4;75.6
78704;SHT31;68034;51.966;5.676;2024-01-15T00:52:31;4.4;75.8
78704;SHT31;68034;51.966;5.676;2024-01-15T00:55:00;4.4;75.8
78704;SHT31;68034;51.966;5.676;2024-01-15T00:57:29;4.4;75.8
78704;SHT31;68034;51.966;5.676;2024-01-15T00:59:58;4.4;75.8
78704;SHT31;68034;51.966;5.676;2024-01-15T01:02:26;4.4;75.9
78704;SHT31;68034;51.966;5.676;2024-01-15T01:04:55;4.4;75.7
78704;SHT31;68034;51.966;5.676;2024-01-15T01:07:24;4.4;75.7
78704;SHT31;68034;51.966;5.676;2024-01-15T01:09:52;4.4;75.7
78704;SHT31;68034;51.966;5.676;2024-01-15T01:12:21;4.3;75.9
78704;SHT31;68034;51.966;5.676;2024-01-15T01:14:50;4.3;75.7
78704;SHT31;68034;51.966;5.676;2024-01-15T01:17:18;4.3;75.7
78704;SHT31;68034;51.966;5.676;2024-01-15T01:19:47;4.3;75.8
78704;SHT31;68034;51.966;5.676;2024-01-15T01:22:16;4.3;75.6
78704;SHT31;68034;51.966;5.676;2024-01-15T01:24:45;4.3;75.8
78704;SHT31;68034;51.966;5.676;2024-01-15T01:27:13;4.3;76.2
78704;SHT31;68034;51.966;5.676;2024-01-15T01:29:42;4.3;76.3
78704;SHT31;68034;51.966;5.676;2024-01-15T01:32:11;4.3;76.2
78704;SHT31;68034;51.966;5.676;2024-01-15T01:34:41;4.4;75.8
78704;SHT31;68034;51.966;5.676;2024-01-15T01:37:11;4.4;75.3
78704;SHT31;68034;51.966;5.676;2024-01-15T01:39:41;4.4;75.0
78704;SHT31;68034;51.966;5.676;2024-01-15T01:42:10;4.4;74.9
78704;SHT31;68034;51.966;5.676;2024-01-15T01:44:39;4.4;74.7
78704;SHT31;68034;51.966;5.676;2024-01-15T01:47:08;4.3;74.6
78704;SHT31;68034;51.966;5.676;2024-01-15T01:49:37;4.3;74.5
78704;SHT31;68034;51.966;5.676;2024-01-15T01:52:07;4.3;74.5
78704;SHT31;68034;51.966;5.676;2024-01-15T01:54:39;4.3;74.3
78704;SHT31;68034;51.966;5.676;2024-01-15T01:57:09;4.3;74.3
78704;SHT31;68034;51.966;5.676;2024-01-15T01:59:39;4.3;74.5
78704;SHT31;68034;51.966;5.676;2024-01-15T02:02:09;4.3;74.4
78704;SHT31;68034;51.966;5.676;2024-01-15T02:04:38;4.3;74.4
78704;SHT31;68034;51.966;5.676;2024-01-15T02:07:07;4.3;74.4
78704;SHT31;68034;51.966;5.676;2024-01-15T02:09:37;4.2;74.2
78704;SHT31;68034;51.966;5.676;2024-01-15T02:12:06;4.2;74.1
78704;SHT31;68034;51.966;5.676;2024-01-15T02:14:35;4.2;74.1
78704;SHT31;68034;51.966;5.676;2024-01-15T02:17:06;4.2;74.0
78704;SHT31;68034;51.966;5.676;2024-01-15T02:19:34;4.2;74.0
78704;SHT31;68034;51.966;5.676;2024-01-15T02:22:03;4.2;73.8
78704;SHT31;68034;51.966;5.676;2024-01-15T02:24:32;4.2;73.8
78704;SHT31;68034;51.966;5.676;2024-01-15T02:27:01;4.2;73.8
78704;SHT31;68034;51.966;5.676;2024-01-15T02:29:30;4.2;73.7
78704;SHT31;68034;51.966;5.676;2024-01-15T02:31:59;4.2;73.7
78704;SHT31;68034;51.966;5.676;2024-01-15T02:34:33;4.2;73.6
78704;SHT31;68034;51.966;5.676;2024-01-15T02:37:02;4.1;73.9
78704;SHT31;68034;51.966;5.676;2024-01-15T02:39:32;4.1;74.0
78704;SHT31;68034;51.966;5.676;2024-01-15T02:42:01;4.1;74.3
78704;SHT31;68034;51.966;5.676;2024-01-15T02:44:32;4.1;74.6
78704;SHT31;68034;51.966;5.676;2024-01-15T02:47:01;4.2;75.0
78704;SHT31;68034;51.966;5.676;2024-01-15T02:49:30;4.2;74.9
78704;SHT31;68034;51.966;5.676;2024-01-15T02:51:59;4.2;74.8
78704;SHT31;68034;51.966;5.676;2024-01-15T02:54:29;4.3;74.8
78704;SHT31;68034;51.966;5.676;2024-01-15T02:56:57;4.3;74.9
78704;SHT31;68034;51.966;5.676;2024-01-15T02:59:26;4.3;74.6
78704;SHT31;68034;51.966;5.676;2024-01-15T03:01:55;4.3;74.2
78704;SHT31;68034;51.966;5.676;2024-01-15T03:04:23;4.3;73.9
78704;SHT31;68034;51.966;5.676;2024-01-15T03:06:52;4.3;74.2
78704;SHT31;68034;51.966;5.676;2024-01-15T03:09:20;4.3;74.5
78704;SHT31;68034;51.966;5.676;2024-01-15T03:11:49;4.3;74.6
78704;SHT31;68034;51.966;5.676;2024-01-15T03:14:18;4.3;74.5
78704;SHT31;68034;51.966;5.676;2024-01-15T03:16:47;4.3;74.4
78704;SHT31;68034;51.966;5.676;2024-01-15T03:19:15;4.4;74.2
78704;SHT31;68034;51.966;5.676;2024-01-15T03:21:44;4.4;74.1
78704;SHT31;68034;51.966;5.676;2024-01-15T03:24:16;4.4;73.9
78704;SHT31;68034;51.966;5.676;2024-01-15T03:26:48;4.5;74.2
78704;SHT31;68034;51.966;5.676;2024-01-15T03:29:17;4.6;73.9
78704;SHT31;68034;51.966;5.676;2024-01-15T03:31:45;4.8;73.4
78704;SHT31;68034;51.966;5.676;2024-01-15T03:34:14;4.9;72.9
78704;SHT31;68034;51.966;5.676;2024-01-15T03:36:47;5.1;72.4
78704;SHT31;68034;51.966;5.676;2024-01-15T03:39:15;5.2;71.7
78704;SHT31;68034;51.966;5.676;2024-01-15T03:41:44;5.3;71.1
78704;SHT31;68034;51.966;5.676;2024-01-15T03:44:18;5.4;70.4
78704;SHT31;68034;51.966;5.676;2024-01-15T03:46:50;5.5;69.9
78704;SHT31;68034;51.966;5.676;2024-01-15T03:49:19;5.5;69.7
78704;SHT31;68034;51.966;5.676;2024-01-15T03:51:48;5.6;69.3
78704;SHT31;68034;51.966;5.676;2024-01-15T03:54:17;5.6;69.2
78704;SHT31;68034;51.966;5.676;2024-01-15T03:56:45;5.7;69.1
78704;SHT31;68034;51.966;5.676;2024-01-15T03:59:14;5.7;69.0
78704;SHT31;68034;51.966;5.676;2024-01-15T04:01:52;5.7;68.7
78704;SHT31;68034;51.966;5.676;2024-01-15T04:04:22;5.8;68.2
78704;SHT31;68034;51.966;5.676;2024-01-15T04:06:53;5.8;67.7
78704;SHT31;68034;51.966;5.676;2024-01-15T04:09:26;5.8;67.7
78704;SHT31;68034;51.966;5.676;2024-01-15T04:11:54;5.7;67.8
78704;SHT31;68034;51.966;5.676;2024-01-15T04:14:23;5.7;68.2
78704;SHT31;68034;51.966;5.676;2024-01-15T04:16:52;5.7;68.5
78704;SHT31;68034;51.966;5.676;2024-01-15T04:19:20;5.6;69.0
78704;SHT31;68034;51.966;5.676;2024-01-15T04:21:49;5.5;69.4
78704;SHT31;68034;51.966;5.676;2024-01-15T04:24:18;5.5;69.8
78704;SHT31;68034;51.966;5.676;2024-01-15T04:26:47;5.4;70.2
78704;SHT31;68034;51.966;5.676;2024-01-15T04:29:16;5.4;70.5
78704;SHT31;68034;51.966;5.676;2024-01-15T04:31:44;5.4;70.3
78704;SHT31;68034;51.966;5.676;2024-01-15T04:34:13;5.3;70.4
78704;SHT31;68034;51.966;5.676;2024-01-15T04:36:42;5.2;70.4
78704;SHT31;68034;51.966;5.676;2024-01-15T04:39:10;5.1;70.9
78704;SHT31;68034;51.966;5.676;2024-01-15T04:41:40;5.1;71.4
78704;SHT31;68034;51.966;5.676;2024-01-15T04:44:08;5.0;71.6
78704;SHT31;68034;51.966;5.676;2024-01-15T04:46:37;4.9;71.4
78704;SHT31;68034;51.966;5.676;2024-01-15T04:49:07;4.9;71.5
78704;SHT31;68034;51.966;5.676;2024-01-15T04:51:36;4.8;71.6
78704;SHT31;68034;51.966;5.676;2024-01-15T04:54:04;4.7;71.5
78704;SHT31;68034;51.966;5.676;2024-01-15T04:56:33;4.7;71.5
78704;SHT31;68034;51.966;5.676;2024-01-15T04:59:02;4.6;71.8
78704;SHT31;68034;51.966;5.676;2024-01-15T05:01:32;4.5;72.1
78704;SHT31;68034;51.966;5.676;2024-01-15T05:04:01;4.4;72.2
78704;SHT31;68034;51.966;5.676;2024-01-15T05:06:30;4.4;72.5
78704;SHT31;68034;51.966;5.676;2024-01-15T05:08:59;4.3;72.8
78704;SHT31;68034;51.966;5.676;2024-01-15T05:11:28;4.2;73.2
78704;SHT31;68034;51.966;5.676;2024-01-15T05:13:56;4.2;73.6
78704;SHT31;68034;51.966;5.676;2024-01-15T05:16:25;4.1;73.9
78704;SHT31;68034;51.966;5.676;2024-01-15T05:18:54;4.1;74.4
78704;SHT31;68034;51.966;5.676;2024-01-15T05:21:22;4.0;74.9
78704;SHT31;68034;51.966;5.676;2024-01-15T05:23:51;4.0;75.0
78704;SHT31;68034;51.966;5.676;2024-01-15T05:26:20;3.9;75.2
78704;SHT31;68034;51.966;5.676;2024-01-15T05:28:48;3.9;75.5
78704;SHT31;68034;51.966;5.676;2024-01-15T05:31:17;3.9;75.9
78704;SHT31;68034;51.966;5.676;2024-01-15T05:33:46;3.9;76.2
78704;SHT31;68034;51.966;5.676;2024-01-15T05:36:14;3.8;76.5
78704;SHT31;68034;51.966;5.676;2024-01-15T05:38:43;3.8;76.7
78704;SHT31;68034;51.966;5.676;2024-01-15T05:41:12;3.8;76.7
78704;SHT31;68034;51.966;5.676;2024-01-15T05:43:40;3.8;76.8
78704;SHT31;68034;51.966;5.676;2024-01-15T05:46:09;3.8;76.9
78704;SHT31;68034;51.966;5.676;2024-01-15T05:48:38;3.8;76.9
78704;SHT31;68034;51.966;5.676;2024-01-15T05:51:06;3.9;77.1
78704;SHT31;68034;51.966;5.676;2024-01-15T05:53:35;3.9;77.2
78704;SHT31;68034;51.966;5.676;2024-01-15T05:56:07;3.9;77.0
78704;SHT31;68034;51.966;5.676;2024-01-15T05:58:35;3.9;76.8
78704;SHT31;68034;51.966;5.676;2024-01-15T06:01:04;3.9;76.8
78704;SHT31;68034;51.966;5.676;2024-01-15T06:03:33;3.9;76.9
78704;SHT31;68034;51.966;5.676;2024-01-15T06:06:02;3.9;76.9
78704;SHT31;68034;51.966;5.676;2024-01-15T06:08:31;3.9;77.0
78704;SHT31;68034;51.966;5.676;2024-01-15T06:11:01;3.9;77.3
78704;SHT31;68034;51.966;5.676;2024-01-15T06:13:30;3.9;77.3
78704;SHT31;68034;51.966;5.676;2024-01-15T06:15:59;3.9;77.2
78704;SHT31;68034;51.966;5.676;2024-01-15T06:18:28;4.0;77.2
78704;SHT31;68034;51.966;5.676;2024-01-15T06:20:56;4.0;77.3
78704;SHT31;68034;51.966;5.676;2024-01-15T06:23:25;4.0;77.2
78704;SHT31;68034;51.966;5.676;2024-01-15T06:25:54;4.0;77.3
78704;SHT31;68034;51.966;5.676;2024-01-15T06:28:22;4.0;77.3
78704;SHT31;68034;51.966;5.676;2024-01-15T06:30:51;4.1;77.1
78704;SHT31;68034;51.966;5.676;2024-01-15T06:33:19;4.1;76.9
78704;SHT31;68034;51.966;5.676;2024-01-15T06:35:48;4.1;76.7
78704;SHT31;68034;51.966;5.676;2024-01-15T06:38:17;4.1;76.5
78704;SHT31;68034;51.966;5.676;2024-01-15T06:40:45;4.1;76.4
78704;SHT31;68034;51.966;5.676;2024-01-15T06:43:15;4.1;76.2
78704;SHT31;68034;51.966;5.676;2024-01-15T06:45:44;4.1;75.9
78704;SHT31;68034;51.966;5.676;2024-01-15T06:48:12;4.1;75.4
78704;SHT31;68034;51.966;5.676;2024-01-15T06:50:43;4.1;75.2
78704;SHT31;68034;51.966;5.676;2024-01-15T06:53:12;4.1;75.2
78704;SHT31;68034;51.966;5.676;2024-01-15T06:55:40;4.1;75.2
78704;SHT31;68034;51.966;5.676;2024-01-15T06:58:09;4.1;75.2
78704;SHT31;68034;51.966;5.676;2024-01-15T07:00:38;4.0;75.4
78704;SHT31;68034;51.966;5.676;2024-01-15T07:03:07;4.0;75.6
78704;SHT31;68034;51.966;5.676;2024-01-15T07:05:36;4.0;75.8
78704;SHT31;68034;51.966;5.676;2024-01-15T07:08:05;4.0;76.0
78704;SHT31;68034;51.966;5.676;2024-01-15T07:10:34;4.0;76.0
78704;SHT31;68034;51.966;5.676;2024-01-15T07:13:03;4.0;76.0
78704;SHT31;68034;51.966;5.676;2024-01-15T07:15:33;3.9;75.9
78704;SHT31;68034;51.966;5.676;2024-01-15T07:18:01;3.9;75.9
78704;SHT31;68034;51.966;5.676;2024-01-15T07:20:30;3.9;76.1
78704;SHT31;68034;51.966;5.676;2024-01-15T07:22:59;3.9;76.3
78704;SHT31;68034;51.966;5.676;2024-01-15T07:25:29;3.9;76.4
78704;SHT31;68034;51.966;5.676;2024-01-15T07:27:58;3.9;76.6
78704;SHT31;68034;51.966;5.676;2024-01-15T07:30:26;3.8;76.7
78704;SHT31;68034;51.966;5.676;2024-01-15T07:32:55;3.8;76.7
78704;SHT31;68034;51.966;5.676;2024-01-15T07:35:28;3.8;76.7
78704;SHT31;68034;51.966;5.676;2024-01-15T07:37:57;3.8;76.7
78704;SHT31;68034;51.966;5.676;2024-01-15T07:40:26;3.8;76.7
78704;SHT31;68034;51.966;5.676;2024-01-15T07:42:55;3.8;76.7
78704;SHT31;68034;51.966;5.676;2024-01-15T07:45:23;3.8;76.9
78704;SHT31;68034;51.966;5.676;2024-01-15T07:47:52;3.8;76.9
78704;SHT31;68034;51.966;5.676;2024-01-15T07:50:21;3.8;76.7
78704;SHT31;68034;51.966;5.676;2024-01-15T07:52:49;3.8;76.6
78704;SHT31;68034;51.966;5.676;2024-01-15T07:55:19;3.8;76.6
78704;SHT31;68034;51.966;5.676;2024-01-15T07:57:48;3.8;76.7
78704;SHT31;68034;51.966;5.676;2024-01-15T08:00:18;3.8;76.9
78704;SHT31;68034;51.966;5.676;2024-01-15T08:02:47;3.8;77.2
78704;SHT31;68034;51.966;5.676;2024-01-15T08:05:17;3.8;77.3
78704;SHT31;68034;51.966;5.676;2024-01-15T08:07:48;3.8;77.2
78704;SHT31;68034;51.966;5.676;2024-01-15T08:10:17;3.9;77.2
78704;SHT31;68034;51.966;5.676;2024-01-15T08:12:46;3.9;77.0
78704;SHT31;68034;51.966;5.676;2024-01-15T08:15:16;3.9;76.9
78704;SHT31;68034;51.966;5.676;2024-01-15T08:17:44;4.0;76.8
78704;SHT31;68034;51.966;5.676;2024-01-15T08:20:15;4.0;76.8
78704;SHT31;68034;51.966;5.676;2024-01-15T08:23:02;4.0;76.6
78704;SHT31;68034;51.966;5.676;2024-01-15T08:25:31;4.0;76.2
78704;SHT31;68034;51.966;5.676;2024-01-15T08:28:02;4.0;75.9
78704;SHT31;68034;51.966;5.676;2024-01-15T08:30:31;4.1;76.0
78704;SHT31;68034;51.966;5.676;2024-01-15T08:33:00;4.1;76.0
78704;SHT31;68034;51.966;5.676;2024-01-15T08:35:29;4.1;76.0
78704;SHT31;68034;51.966;5.676;2024-01-15T08:37:57;4.1;76.1
78704;SHT31;68034;51.966;5.676;2024-01-15T08:40:29;4.1;76.1
78704;SHT31;68034;51.966;5.676;2024-01-15T08:42:57;4.1;76.3
78704;SHT31;68034;51.966;5.676;2024-01-15T08:45:26;4.1;76.2
78704;SHT31;68034;51.966;5.676;2024-01-15T08:47:55;4.1;76.1
78704;SHT31;68034;51.966;5.676;2024-01-15T08:50:23;4.1;75.8
78704;SHT31;68034;51.966;5.676;2024-01-15T08:52:52;4.1;76.0
78704;SHT31;68034;51.966;5.676;2024-01-15T08:55:21;4.1;76.1
78704;SHT31;68034;51.966;5.676;2024-01-15T08:57:51;4.1;76.2
78704;SHT31;68034;51.966;5.676;2024-01-15T09:00:19;4.1;76.3
78704;SHT31;68034;51.966;5.676;2024-01-15T09:02:48;4.2;76.2
78704;SHT31;68034;51.966;5.676;2024-01-15T09:05:17;4.2;76.2
78704;SHT31;68034;51.966;5.676;2024-01-15T09:07:46;4.2;75.9
78704;SHT31;68034;51.966;5.676;2024-01-15T09:10:14;4.2;75.8
78704;SHT31;68034;51.966;5.676;2024-01-15T09:12:43;4.2;76.0
78704;SHT31;68034;51.966;5.676;2024-01-15T09:15:12;4.2;76.1
78704;SHT31;68034;51.966;5.676;2024-01-15T09:17:41;4.2;76.2
78704;SHT31;68034;51.966;5.676;2024-01-15T09:20:10;4.3;76.0
78704;SHT31;68034;51.966;5.676;2024-01-15T09:22:39;4.3;75.7
78704;SHT31;68034;51.966;5.676;2024-01-15T09:25:09;4.3;75.5
78704;SHT31;68034;51.966;5.676;2024-01-15T09:27:38;4.3;75.4
78704;SHT31;68034;51.966;5.676;2024-01-15T09:30:07;4.3;75.5
78704;SHT31;68034;51.966;5.676;2024-01-15T09:32:37;4.3;75.8
78704;SHT31;68034;51.966;5.676;2024-01-15T09:35:07;4.3;76.1
78704;SHT31;68034;51.966;5.676;2024-01-15T09:37:36;4.3;76.2
78704;SHT31;68034;51.966;5.676;2024-01-15T09:40:13;4.3;75.9
78704;SHT31;68034;51.966;5.676;2024-01-15T09:42:44;4.3;75.3
78704;SHT31;68034;51.966;5.676;2024-01-15T09:45:16;4.3;74.9
78704;SHT31;68034;51.966;5.676;2024-01-15T09:47:45;4.3;74.9
78704;SHT31;68034;51.966;5.676;2024-01-15T09:50:14;4.3;74.9
78704;SHT31;68034;51.966;5.676;2024-01-15T09:52:44;4.3;74.8
78704;SHT31;68034;51.966;5.676;2024-01-15T09:55:15;4.3;74.9
78704;SHT31;68034;51.966;5.676;2024-01-15T09:57:46;4.3;75.4
78704;SHT31;68034;51.966;5.676;2024-01-15T10:00:17;4.3;76.1
78704;SHT31;68034;51.966;5.676;2024-01-15T10:02:47;4.3;77.0
78704;SHT31;68034;51.966;5.676;2024-01-15T10:05:16;4.3;77.5
78704;SHT31;68034;51.966;5.676;2024-01-15T10:07:46;4.3;77.9
78704;SHT31;68034;51.966;5.676;2024-01-15T10:10:17;4.4;77.4
78704;SHT31;68034;51.966;5.676;2024-01-15T10:12:46;4.4;76.6
78704;SHT31;68034;51.966;5.676;2024-01-15T10:15:15;4.5;76.0
78704;SHT31;68034;51.966;5.676;2024-01-15T10:17:46;4.5;75.4
78704;SHT31;68034;51.966;5.676;2024-01-15T10:20:15;4.5;75.1
78704;SHT31;68034;51.966;5.676;2024-01-15T10:22:45;4.5;74.7
78704;SHT31;68034;51.966;5.676;2024-01-15T10:25:14;4.5;74.6
78704;SHT31;68034;51.966;5.676;2024-01-15T10:28:01;4.4;75.1
78704;SHT31;68034;51.966;5.676;2024-01-15T10:30:30;4.4;75.2
78704;SHT31;68034;51.966;5.676;2024-01-15T10:33:01;4.4;76.0
78704;SHT31;68034;51.966;5.676;2024-01-15T10:35:32;4.4;77.0
78704;SHT31;68034;51.966;5.676;2024-01-15T10:38:04;4.4;77.8
78704;SHT31;68034;51.966;5.676;2024-01-15T10:40:34;4.6;79.0
78704;SHT31;68034;51.966;5.676;2024-01-15T10:43:04;4.8;77.9
78704;SHT31;68034;51.966;5.676;2024-01-15T10:45:34;5.0;77.4
78704;SHT31;68034;51.966;5.676;2024-01-15T10:48:07;5.3;77.1
78704;SHT31;68034;51.966;5.676;2024-01-15T10:50:36;5.5;76.2
78704;SHT31;68034;51.966;5.676;2024-01-15T10:53:06;5.6;75.0
78704;SHT31;68034;51.966;5.676;2024-01-15T10:55:37;5.7;73.6
78704;SHT31;68034;51.966;5.676;2024-01-15T10:58:07;5.7;72.5
78704;SHT31;68034;51.966;5.676;2024-01-15T11:00:38;5.7;71.8
78704;SHT31;68034;51.966;5.676;2024-01-15T11:03:09;5.7;71.4
78704;SHT31;68034;51.966;5.676;2024-01-15T11:05:39;5.8;70.6
78704;SHT31;68034;51.966;5.676;2024-01-15T11:08:11;5.7;70.6
78704;SHT31;68034;51.966;5.676;2024-01-15T11:10:41;5.7;71.0
78704;SHT31;68034;51.966;5.676;2024-01-15T11:13:13;5.7;71.8
78704;SHT31;68034;51.966;5.676;2024-01-15T11:15:59;5.7;71.9
78704;SHT31;68034;51.966;5.676;2024-01-15T11:18:31;5.6;72.0
78704;SHT31;68034;51.966;5.676;2024-01-15T11:21:23;5.6;72.6
78704;SHT31;68034;51.966;5.676;2024-01-15T11:23:55;5.6;73.5
78704;SHT31;68034;51.966;5.676;2024-01-15T11:26:33;5.6;73.6
78704;SHT31;68034;51.966;5.676;2024-01-15T11:29:04;5.6;73.1
78704;SHT31;68034;51.966;5.676;2024-01-15T11:31:59;5.6;73.3
78704;SHT31;68034;51.966;5.676;2024-01-15T11:34:53;5.6;73.1
78704;SHT31;68034;51.966;5.676;2024-01-15T11:37:26;5.5;73.3
78704;SHT31;68034;51.966;5.676;2024-01-15T11:39:59;5.5;73.5
78704;SHT31;68034;51.966;5.676;2024-01-15T11:42:30;5.5;73.4
78704;SHT31;68034;51.966;5.676;2024-01-15T11:45:02;5.5;73.5
78704;SHT31;68034;51.966;5.676;2024-01-15T11:48:10;5.5;73.4
78704;SHT31;68034;51.966;5.676;2024-01-15T11:50:42;5.4;73.2
78704;SHT31;68034;51.966;5.676;2024-01-15T11:53:24;5.4;73.2
78704;SHT31;68034;51.966;5.676;2024-01-15T11:56:02;5.4;73.2
78704;SHT31;68034;51.966;5.676;2024-01-15T11:58:41;5.4;74.0
78704;SHT31;68034;51.966;5.676;2024-01-15T12:01:11;5.4;75.4
78704;SHT31;68034;51.966;5.676;2024-01-15T12:03:40;5.4;76.3
78704;SHT31;68034;51.966;5.676;2024-01-15T12:06:09;5.4;76.1
78704;SHT31;68034;51.966;5.676;2024-01-15T12:08:38;5.4;75.5
78704;SHT31;68034;51.966;5.676;2024-01-15T12:11:13;5.5;75.3
78704;SHT31;68034;51.966;5.676;2024-01-15T12:13:42;5.5;74.3
78704;SHT31;68034;51.966;5.676;2024-01-15T12:16:11;5.6;73.8
78704;SHT31;68034;51.966;5.676;2024-01-15T12:18:41;5.6;73.4
78704;SHT31;68034;51.966;5.676;2024-01-15T12:21:10;5.6;73.8
78704;SHT31;68034;51.966;5.676;2024-01-15T12:23:39;5.6;73.9
78704;SHT31;68034;51.966;5.676;2024-01-15T12:26:08;5.6;73.6
78704;SHT31;68034;51.966;5.676;2024-01-15T12:28:37;5.6;73.5
78704;SHT31;68034;51.966;5.676;2024-01-15T12:31:06;5.6;73.2
78704;SHT31;68034;51.966;5.676;2024-01-15T12:33:35;5.6;73.4
78704;SHT31;68034;51.966;5.676;2024-01-15T12:36:04;5.6;73.1
78704;SHT31;68034;51.966;5.676;2024-01-15T12:38:33;5.6;73.4
78704;SHT31;68034;51.966;5.676;2024-01-15T12:41:02;5.6;73.6
78704;SHT31;68034;51.966;5.676;2024-01-15T12:43:31;5.6;74.4
78704;SHT31;68034;51.966;5.676;2024-01-15T12:46:00;5.6;76.1
78704;SHT31;68034;51.966;5.676;2024-01-15T12:48:29;5.7;76.0
78704;SHT31;68034;51.966;5.676;2024-01-15T12:50:58;5.7;75.4
78704;SHT31;68034;51.966;5.676;2024-01-15T12:53:27;5.8;74.3
78704;SHT31;68034;51.966;5.676;2024-01-15T12:55:56;5.8;73.6
78704;SHT31;68034;51.966;5.676;2024-01-15T12:58:25;5.8;72.9
78704;SHT31;68034;51.966;5.676;2024-01-15T13:00:54;5.8;72.6
78704;SHT31;68034;51.966;5.676;2024-01-15T13:03:24;5.8;73.5
78704;SHT31;68034;51.966;5.676;2024-01-15T13:05:53;5.8;73.8
78704;SHT31;68034;51.966;5.676;2024-01-15T13:08:23;5.8;73.7
78704;SHT31;68034;51.966;5.676;2024-01-15T13:10:55;5.8;72.4
78704;SHT31;68034;51.966;5.676;2024-01-15T13:13:24;5.8;71.7
78704;SHT31;68034;51.966;5.676;2024-01-15T13:15:54;5.8;71.7
78704;SHT31;68034;51.966;5.676;2024-01-15T13:18:24;5.7;71.5
78704;SHT31;68034;51.966;5.676;2024-01-15T13:20:53;5.7;71.8
78704;SHT31;68034;51.966;5.676;2024-01-15T13:23:22;5.7;72.2
78704;SHT31;68034;51.966;5.676;2024-01-15T13:25:51;5.7;72.3
78704;SHT31;68034;51.966;5.676;2024-01-15T13:28:23;5.7;72.3
78704;SHT31;68034;51.966;5.676;2024-01-15T13:30:52;5.7;72.1
78704;SHT31;68034;51.966;5.676;2024-01-15T13:33:21;5.7;71.7
78704;SHT31;68034;51.966;5.676;2024-01-15T13:35:50;5.6;72.1
78704;SHT31;68034;51.966;5.676;2024-01-15T13:38:20;5.6;71.9
78704;SHT31;68034;51.966;5.676;2024-01-15T13:40:51;5.6;71.7
78704;SHT31;68034;51.966;5.676;2024-01-15T13:43:21;5.6;72.0
78704;SHT31;68034;51.966;5.676;2024-01-15T13:45:50;5.6;72.2
78704;SHT31;68034;51.966;5.676;2024-01-15T13:48:20;5.6;72.4
78704;SHT31;68034;51.966;5.676;2024-01-15T13:50:49;5.6;74.0
78704;SHT31;68034;51.966;5.676;2024-01-15T13:53:20;5.7;74.5
78704;SHT31;68034;51.966;5.676;2024-01-15T13:55:49;5.9;74.7
78704;SHT31;68034;51.966;5.676;2024-01-15T13:58:18;6.1;73.1
78704;SHT31;68034;51.966;5.676;2024-01-15T14:00:48;6.4;71.0
78704;SHT31;68034;51.966;5.676;2024-01-15T14:03:18;6.5;69.2
78704;SHT31;68034;51.966;5.676;2024-01-15T14:05:47;6.6;68.7
78704;SHT31;68034;51.966;5.676;2024-01-15T14:08:18;6.6;68.4
78704;SHT31;68034;51.966;5.676;2024-01-15T14:10:47;6.6;68.2
78704;SHT31;68034;51.966;5.676;2024-01-15T14:13:16;6.6;67.5
78704;SHT31;68034;51.966;5.676;2024-01-15T14:15:44;6.6;67.8
78704;SHT31;68034;51.966;5.676;2024-01-15T14:18:21;6.6;68.3
78704;SHT31;68034;51.966;5.676;2024-01-15T14:20:50;6.7;67.8
78704;SHT31;68034;51.966;5.676;2024-01-15T14:23:24;6.7;68.5
78704;SHT31;68034;51.966;5.676;2024-01-15T14:25:56;6.7;68.2
78704;SHT31;68034;51.966;5.676;2024-01-15T14:28:31;6.8;67.6
78704;SHT31;68034;51.966;5.676;2024-01-15T14:30:59;6.8;67.2
78704;SHT31;68034;51.966;5.676;2024-01-15T14:33:33;6.9;67.0
78704;SHT31;68034;51.966;5.676;2024-01-15T14:36:05;6.9;67.3
78704;SHT31;68034;51.966;5.676;2024-01-15T14:38:39;7.0;67.3
78704;SHT31;68034;51.966;5.676;2024-01-15T14:41:08;7.0;67.0
78704;SHT31;68034;51.966;5.676;2024-01-15T14:43:37;7.0;66.6
78704;SHT31;68034;51.966;5.676;2024-01-15T14:46:06;6.9;66.3
78704;SHT31;68034;51.966;5.676;2024-01-15T14:48:34;6.8;66.2
78704;SHT31;68034;51.966;5.676;2024-01-15T14:51:03;6.7;66.1
78704;SHT31;68034;51.966;5.676;2024-01-15T14:53:32;6.6;66.3
78704;SHT31;68034;51.966;5.676;2024-01-15T14:56:02;6.5;66.9
78704;SHT31;68034;51.966;5.676;2024-01-15T14:58:32;6.3;67.0
78704;SHT31;68034;51.966;5.676;2024-01-15T15:01:00;6.2;67.3
78704;SHT31;68034;51.966;5.676;2024-01-15T15:03:30;6.1;67.8
78704;SHT31;68034;51.966;5.676;2024-01-15T15:05:59;6.0;68.4
78704;SHT31;68034;51.966;5.676;2024-01-15T15:08:28;6.0;68.8
78704;SHT31;68034;51.966;5.676;2024-01-15T15:10:57;5.9;69.1
78704;SHT31;68034;51.966;5.676;2024-01-15T15:13:26;5.9;69.2
78704;SHT31;68034;51.966;5.676;2024-01-15T15:15:55;5.8;69.7
78704;SHT31;68034;51.966;5.676;2024-01-15T15:18:24;5.8;70.1
78704;SHT31;68034;51.966;5.676;2024-01-15T15:20:52;5.8;70.6
78704;SHT31;68034;51.966;5.676;2024-01-15T15:23:22;5.7;70.6
78704;SHT31;68034;51.966;5.676;2024-01-15T15:25:50;5.7;70.6
78704;SHT31;68034;51.966;5.676;2024-01-15T15:28:19;5.7;70.7
78704;SHT31;68034;51.966;5.676;2024-01-15T15:30:50;5.6;70.6
78704;SHT31;68034;51.966;5.676;2024-01-15T15:33:19;5.6;71.0
78704;SHT31;68034;51.966;5.676;2024-01-15T15:35:47;5.5;71.0
78704;SHT31;68034;51.966;5.676;2024-01-15T15:38:18;5.5;70.9
78704;SHT31;68034;51.966;5.676;2024-01-15T15:40:51;5.5;70.8
78704;SHT31;68034;51.966;5.676;2024-01-15T15:43:20;5.4;70.8
78704;SHT31;68034;51.966;5.676;2024-01-15T15:45:49;5.4;70.7
78704;SHT31;68034;51.966;5.676;2024-01-15T15:48:18;5.3;71.2
78704;SHT31;68034;51.966;5.676;2024-01-15T15:50:49;5.3;71.2
78704;SHT31;68034;51.966;5.676;2024-01-15T15:53:18;5.3;71.1
78704;SHT31;68034;51.966;5.676;2024-01-15T15:55:48;5.3;71.0
78704;SHT31;68034;51.966;5.676;2024-01-15T15:58:17;5.2;71.2
78704;SHT31;68034;51.966;5.676;2024-01-15T16:00:46;5.2;72.1
78704;SHT31;68034;51.966;5.676;2024-01-15T16:03:15;5.2;72.1
78704;SHT31;68034;51.966;5.676;2024-01-15T16:05:45;5.3;72.5
78704;SHT31;68034;51.966;5.676;2024-01-15T16:08:14;5.3;72.4
78704;SHT31;68034;51.966;5.676;2024-01-15T16:10:48;5.3;72.3
78704;SHT31;68034;51.966;5.676;2024-01-15T16:13:18;5.3;71.7
78704;SHT31;68034;51.966;5.676;2024-01-15T16:15:47;5.3;71.5
78704;SHT31;68034;51.966;5.676;2024-01-15T16:18:15;5.3;71.9
78704;SHT31;68034;51.966;5.676;2024-01-15T16:20:44;5.3;72.7
78704;SHT31;68034;51.966;5.676;2024-01-15T16:23:13;5.3;72.6
78704;SHT31;68034;51.966;5.676;2024-01-15T16:25:42;5.3;72.7
78704;SHT31;68034;51.966;5.676;2024-01-15T16:28:11;5.3;72.1
78704;SHT31;68034;51.966;5.676;2024-01-15T16:30:39;5.4;72.3
78704;SHT31;68034;51.966;5.676;2024-01-15T16:33:09;5.4;72.4